| Date | Time | Temp. (oF) | Dew Point (oF) | Rel. Hum. (%) | Press. (in.) | Wind Dir. | Wind Speed (mph) | Hourly Rainfall (in.) |
|
|---|---|---|---|---|---|---|---|---|---|
| 1 | 05/25 | 00:00 | 67 | 59 | 77 | 30.23 | SSW | 3 | 0.00 |
| 2 | 05/24 | 23:00 | 67 | 58 | 74 | 30.23 | SSE | 5 | 0.00 |
| 3 | 05/24 | 22:00 | 68 | 57 | 68 | 30.24 | S | 3 | 0.00 |
| 4 | 05/24 | 21:00 | 70 | 55 | 60 | 30.22 | S | 2 | 0.00 |
| 5 | 05/24 | 20:00 | 74 | 47 | 40 | 30.21 | S | 0 | 0.00 |
| 6 | 05/24 | 19:00 | 78 | 42 | 29 | 30.21 | S | 0 | 0.00 |
| 7 | 05/24 | 18:00 | 78 | 40 | 27 | 30.20 | WSW | 4 | 0.00 |
| 8 | 05/24 | 17:00 | 79 | 39 | 25 | 30.21 | W | 4 | 0.00 |
| 9 | 05/24 | 16:00 | 79 | 43 | 29 | 30.23 | SSE | 2 | 0.00 |
| 10 | 05/24 | 15:00 | 78 | 44 | 31 | 30.26 | NNW | 3 | 0.00 |
| 11 | 05/24 | 14:00 | 76 | 43 | 32 | 30.28 | SSW | 8 | 0.00 |
| 12 | 05/24 | 13:00 | 75 | 48 | 39 | 30.30 | SSE | 3 | 0.00 |
| 13 | 05/24 | 12:00 | 74 | 56 | 54 | 30.32 | N | 3 | 0.00 |
| 14 | 05/24 | 11:00 | 69 | 53 | 58 | 30.34 | SE | 1 | 0.00 |
| 15 | 05/24 | 10:00 | 66 | 53 | 65 | 30.36 | WNW | 2 | 0.00 |
| 16 | 05/24 | 09:00 | 62 | 51 | 68 | 30.37 | SSW | 3 | 0.00 |
| 17 | 05/24 | 08:00 | 55 | 50 | 84 | 30.37 | SSE | 0 | 0.00 |
| 18 | 05/24 | 07:00 | 46 | 44 | 94 | 30.36 | ENE | 0 | 0.00 |
| 19 | 05/24 | 06:00 | 46 | 44 | 93 | 30.36 | NNE | 0 | 0.00 |
| 20 | 05/24 | 05:00 | 46 | 42 | 89 | 30.35 | S | 0 | 0.00 |
| 21 | 05/24 | 04:00 | 47 | 42 | 84 | 30.35 | N | 0 | 0.00 |
| 22 | 05/24 | 03:00 | 50 | 43 | 78 | 30.35 | NNW | 0 | 0.00 |
| 23 | 05/24 | 02:00 | 52 | 42 | 70 | 30.35 | SW | 0 | 0.00 |
| 24 | 05/24 | 01:00 | 53 | 41 | 65 | 30.36 | SSW | 0 | 0.00 |